Time;durP1;ratioP1;P1;durP2;ratioP2;P2;SDS_P1;SDS_P2;PMS_P1;PMS_P2;Temp;Humidity;BMP_temperature;BMP_pressure;BME280_temperature;BME280_humidity;BME280_pressure;Samples;Min_cycle;Max_cycle;Signal;HPM_P1;HPM_P2
2023/09/06 00:01:12;;;;;;;7.25;4.45;;;21.30;99.90;;;;;;5048566;28;20214;-73
2023/09/06 00:03:37;;;;;;;4.30;3.45;;;21.30;99.90;;;;;;5046800;28;20653;-71
2023/09/06 00:06:04;;;;;;;3.10;2.40;;;21.20;99.90;;;;;;5035606;28;20241;-72
2023/09/06 00:08:34;;;;;;;4.15;2.70;;;21.20;99.90;;;;;;5043092;28;20203;-73
2023/09/06 00:11:04;;;;;;;3.92;3.00;;;21.20;99.90;;;;;;5032905;28;20204;-72
2023/09/06 00:13:33;;;;;;;5.38;2.83;;;21.20;99.90;;;;;;5030202;28;20223;-70
2023/09/06 00:16:00;;;;;;;5.28;3.25;;;21.20;99.90;;;;;;5045570;28;20225;-72
2023/09/06 00:18:27;;;;;;;4.43;3.17;;;21.10;99.90;;;;;;5032554;28;20560;-72
2023/09/06 00:20:53;;;;;;;7.03;3.10;;;21.10;99.90;;;;;;5030848;28;20222;-72
2023/09/06 00:23:20;;;;;;;8.77;3.80;;;21.00;99.90;;;;;;5046847;28;20294;-72
2023/09/06 00:25:46;;;;;;;4.47;3.05;;;21.00;99.90;;;;;;5043741;28;20274;-73
2023/09/06 00:28:13;;;;;;;4.72;3.17;;;20.90;99.90;;;;;;5050283;28;20180;-73
2023/09/06 00:30:39;;;;;;;8.00;3.55;;;20.90;99.90;;;;;;5050098;28;20203;-72
2023/09/06 00:33:07;;;;;;;4.65;3.03;;;21.00;99.90;;;;;;5049442;28;20212;-72
2023/09/06 00:35:32;;;;;;;6.30;3.70;;;20.90;99.90;;;;;;5049017;28;20207;-73
2023/09/06 00:38:05;;;;;;;5.80;4.13;;;21.00;99.90;;;;;;5047937;28;20226;-73
2023/09/06 00:40:35;;;;;;;6.43;3.90;;;20.90;99.90;;;;;;5046731;28;20215;-73
2023/09/06 00:43:01;;;;;;;5.55;3.97;;;20.80;99.90;;;;;;5031286;28;20576;-73
2023/09/06 00:45:48;;;;;;;5.88;3.58;;;20.70;99.90;;;;;;5047085;28;20184;-73
2023/09/06 00:48:26;;;;;;;9.95;5.88;;;20.70;99.90;;;;;;5045992;28;20204;-73
2023/09/06 00:50:55;;;;;;;7.80;4.60;;;20.60;99.90;;;;;;5043597;28;20220;-73
2023/09/06 00:53:23;;;;;;;5.03;3.95;;;20.70;99.90;;;;;;5046155;28;20237;-75
2023/09/06 00:55:49;;;;;;;8.93;4.43;;;20.60;99.90;;;;;;5042136;28;20261;-73
2023/09/06 00:58:17;;;;;;;6.15;3.85;;;20.50;99.90;;;;;;5032670;28;20306;-74
2023/09/06 01:00:48;;;;;;;11.63;4.80;;;20.50;99.90;;;;;;5043966;28;20330;-72
2023/09/06 01:03:14;;;;;;;8.43;4.28;;;20.60;99.90;;;;;;5024833;28;20272;-73
2023/09/06 01:05:58;;;;;;;6.10;3.45;;;20.60;99.90;;;;;;5050056;28;20626;-72
2023/09/06 01:08:34;;;;;;;7.53;5.28;;;20.60;99.90;;;;;;5048953;28;20587;-73
2023/09/06 01:11:21;;;;;;;9.40;5.63;;;20.60;99.90;;;;;;5047676;28;20641;-72
2023/09/06 01:13:55;;;;;;;5.93;3.90;;;20.60;99.90;;;;;;5045983;28;20357;-72
2023/09/06 01:16:39;;;;;;;6.95;5.22;;;20.60;99.90;;;;;;5047399;28;20218;-73
2023/09/06 01:19:06;;;;;;;5.18;3.65;;;20.60;99.90;;;;;;5046110;28;20187;-70
2023/09/06 01:21:58;;;;;;;5.32;3.80;;;20.50;99.90;;;;;;5046122;28;20172;-72
2023/09/06 01:24:25;;;;;;;10.70;6.18;;;20.40;99.90;;;;;;5041232;28;20294;-70
2023/09/06 01:26:52;;;;;;;6.97;5.55;;;20.50;99.90;;;;;;5041330;28;20231;-73
2023/09/06 01:29:18;;;;;;;7.28;4.55;;;20.40;99.90;;;;;;5043128;28;20231;-72
2023/09/06 01:31:44;;;;;;;6.43;4.55;;;20.40;99.90;;;;;;5022464;28;20204;-71
2023/09/06 01:34:09;;;;;;;4.85;3.70;;;20.40;99.90;;;;;;5032315;28;20187;-72
2023/09/06 01:36:36;;;;;;;5.75;4.05;;;20.40;99.90;;;;;;5040713;28;20262;-73
2023/09/06 01:39:02;;;;;;;6.28;3.70;;;20.40;99.90;;;;;;5040752;28;20722;-72
2023/09/06 01:41:27;;;;;;;7.70;4.00;;;20.30;99.90;;;;;;5046246;28;20216;-72
2023/09/06 01:43:54;;;;;;;5.65;3.60;;;20.30;99.90;;;;;;5048866;28;20226;-74
2023/09/06 01:46:20;;;;;;;7.63;3.83;;;20.10;99.90;;;;;;5032401;28;20637;-73
2023/09/06 01:48:46;;;;;;;8.25;4.15;;;20.00;99.90;;;;;;5047623;28;20544;-70
2023/09/06 01:51:15;;;;;;;7.18;4.70;;;20.10;99.90;;;;;;5045714;28;20215;-71
2023/09/06 01:53:41;;;;;;;7.85;4.97;;;20.10;99.90;;;;;;5044705;28;20215;-72
2023/09/06 01:56:07;;;;;;;5.88;3.75;;;20.10;99.90;;;;;;5031520;28;20689;-70
2023/09/06 01:58:34;;;;;;;8.70;6.15;;;20.10;99.90;;;;;;5032003;28;20215;-72
2023/09/06 02:01:00;;;;;;;7.38;4.53;;;20.10;99.90;;;;;;5043181;28;20227;-71
2023/09/06 02:03:29;;;;;;;13.52;8.50;;;20.00;99.90;;;;;;5047764;28;20252;-73
2023/09/06 02:05:54;;;;;;;10.75;5.55;;;20.10;99.90;;;;;;5041435;28;20204;-72
2023/09/06 02:08:21;;;;;;;14.70;8.23;;;20.00;99.90;;;;;;5025760;28;20202;-74
2023/09/06 02:10:47;;;;;;;7.50;4.57;;;20.00;99.90;;;;;;5039301;28;20694;-72
2023/09/06 02:13:12;;;;;;;6.53;4.97;;;19.90;99.90;;;;;;5042517;28;20230;-73
2023/09/06 02:15:38;;;;;;;5.38;3.60;;;20.00;99.90;;;;;;5040983;28;20176;-73
2023/09/06 02:18:04;;;;;;;5.28;3.38;;;19.80;99.90;;;;;;5040492;28;20640;-72
2023/09/06 02:20:30;;;;;;;4.28;3.65;;;19.90;99.90;;;;;;5037267;28;20239;-73
2023/09/06 02:22:56;;;;;;;5.13;3.42;;;19.80;99.90;;;;;;5027267;28;20239;-73
2023/09/06 02:25:29;;;;;;;9.15;3.55;;;19.60;99.90;;;;;;5048276;28;20204;-73
2023/09/06 02:27:55;;;;;;;5.10;3.53;;;19.70;99.90;;;;;;5028183;28;20176;-72
2023/09/06 02:30:21;;;;;;;5.28;3.45;;;19.60;99.90;;;;;;5047257;28;20257;-73
2023/09/06 02:32:48;;;;;;;7.07;3.88;;;19.50;99.90;;;;;;5046351;28;20706;-73
2023/09/06 02:35:13;;;;;;;7.88;4.32;;;19.50;99.90;;;;;;5038236;28;20211;-70
2023/09/06 02:37:39;;;;;;;4.13;3.70;;;19.60;99.90;;;;;;5026677;28;20260;-72
2023/09/06 02:40:12;;;;;;;7.47;4.80;;;19.70;99.90;;;;;;5034050;28;20219;-71
2023/09/06 02:42:38;;;;;;;6.53;3.53;;;19.60;99.90;;;;;;5049579;28;20213;-75
2023/09/06 02:45:07;;;;;;;6.70;4.22;;;19.60;99.90;;;;;;5048511;28;20212;-72
2023/09/06 02:47:34;;;;;;;5.72;3.78;;;19.60;99.90;;;;;;5048831;28;20260;-73
2023/09/06 02:50:00;;;;;;;6.60;4.60;;;19.60;99.90;;;;;;5033026;28;20754;-73
2023/09/06 02:52:28;;;;;;;19.65;9.55;;;19.60;99.90;;;;;;5047784;28;20349;-73
2023/09/06 02:54:58;;;;;;;21.33;11.70;;;19.50;99.90;;;;;;5046045;28;20168;-73
2023/09/06 02:57:25;;;;;;;20.50;10.77;;;19.50;99.90;;;;;;5035279;28;20176;-74
2023/09/06 02:59:51;;;;;;;40.50;20.23;;;19.50;99.90;;;;;;5034118;28;20214;-72
2023/09/06 03:02:21;;;;;;;14.02;7.47;;;19.60;99.90;;;;;;5034005;28;20322;-74
2023/09/06 03:04:48;;;;;;;8.70;4.47;;;19.50;99.90;;;;;;5050482;28;20298;-75
2023/09/06 03:07:15;;;;;;;9.45;5.78;;;19.60;99.90;;;;;;5051839;28;20800;-70
2023/09/06 03:09:41;;;;;;;6.63;4.85;;;19.60;99.90;;;;;;5049591;28;20677;-74
2023/09/06 03:12:12;;;;;;;5.82;4.15;;;19.70;99.90;;;;;;5029122;28;20228;-73
2023/09/06 03:14:43;;;;;;;7.32;4.32;;;19.50;99.90;;;;;;5049607;28;20203;-73
2023/09/06 03:17:09;;;;;;;4.68;3.55;;;19.50;99.90;;;;;;5028363;28;20236;-72
2023/09/06 03:19:41;;;;;;;5.88;4.15;;;19.50;99.90;;;;;;5052442;28;20298;-74
2023/09/06 03:22:09;;;;;;;7.38;4.47;;;19.60;99.90;;;;;;5030001;28;20257;-74
2023/09/06 03:24:40;;;;;;;5.45;3.92;;;19.50;99.90;;;;;;5034744;28;20175;-74
2023/09/06 03:27:07;;;;;;;7.63;4.32;;;19.40;99.90;;;;;;5053131;28;20204;-72
2023/09/06 03:29:36;;;;;;;6.38;4.30;;;19.40;99.90;;;;;;5043376;28;20606;-73
2023/09/06 03:32:07;;;;;;;4.72;4.15;;;19.20;99.90;;;;;;5027985;28;20235;-73
2023/09/06 03:34:34;;;;;;;6.30;4.55;;;19.00;99.90;;;;;;5034603;28;20204;-74
2023/09/06 03:37:04;;;;;;;6.55;3.92;;;18.90;99.90;;;;;;5050183;28;20565;-74
2023/09/06 03:39:37;;;;;;;6.25;4.43;;;18.90;99.90;;;;;;5052058;28;20194;-73
2023/09/06 03:42:08;;;;;;;6.70;4.47;;;19.00;99.90;;;;;;5049498;28;20307;-74
2023/09/06 03:44:37;;;;;;;4.60;3.90;;;19.00;99.90;;;;;;5028753;28;20715;-72
2023/09/06 03:47:13;;;;;;;6.10;4.47;;;19.00;99.90;;;;;;5035917;28;20268;-72
2023/09/06 03:49:39;;;;;;;5.82;4.38;;;19.00;99.90;;;;;;5029407;28;20217;-72
2023/09/06 03:52:05;;;;;;;10.05;4.32;;;19.10;99.90;;;;;;5045653;28;20195;-71
2023/09/06 03:54:34;;;;;;;6.30;4.40;;;19.10;99.90;;;;;;5034812;28;20176;-73
2023/09/06 03:57:12;;;;;;;5.78;4.57;;;18.90;99.90;;;;;;5045738;28;20231;-73
2023/09/06 03:59:40;;;;;;;7.07;3.95;;;18.90;99.90;;;;;;5030931;28;20216;-73
2023/09/06 04:02:13;;;;;;;4.78;3.70;;;19.00;99.90;;;;;;5044449;28;20212;-71
2023/09/06 04:04:39;;;;;;;8.93;4.80;;;18.80;99.90;;;;;;5043337;28;20693;-72
2023/09/06 04:07:07;;;;;;;8.93;5.65;;;18.60;99.90;;;;;;5033995;28;20274;-71
2023/09/06 04:09:37;;;;;;;7.85;5.88;;;18.60;99.90;;;;;;5047522;28;20680;-73
2023/09/06 04:12:03;;;;;;;5.72;4.53;;;18.60;99.90;;;;;;5050334;28;20207;-72
2023/09/06 04:14:29;;;;;;;4.35;3.78;;;18.70;99.90;;;;;;5050491;28;20253;-73
2023/09/06 04:16:55;;;;;;;11.30;4.03;;;18.80;99.90;;;;;;5050751;28;20747;-73
2023/09/06 04:19:21;;;;;;;8.45;5.45;;;18.80;99.90;;;;;;5048652;28;20208;-73
2023/09/06 04:21:47;;;;;;;13.82;6.82;;;18.90;99.90;;;;;;5055291;28;20645;-73
2023/09/06 04:24:13;;;;;;;8.85;4.10;;;18.70;99.90;;;;;;5047162;28;20229;-73
2023/09/06 04:26:39;;;;;;;6.50;4.10;;;18.70;99.90;;;;;;5049283;28;20203;-74
2023/09/06 04:29:05;;;;;;;6.10;4.70;;;18.60;99.90;;;;;;5050653;28;20587;-72
2023/09/06 04:31:31;;;;;;;7.88;4.85;;;18.60;99.90;;;;;;5033608;28;20281;-73
2023/09/06 04:33:59;;;;;;;6.97;5.15;;;18.60;99.90;;;;;;5025303;28;20182;-73
2023/09/06 04:36:25;;;;;;;7.55;5.15;;;18.70;99.90;;;;;;5047177;28;20184;-73
2023/09/06 04:38:51;;;;;;;7.95;5.63;;;18.80;99.90;;;;;;5026312;28;20199;-72
2023/09/06 04:41:16;;;;;;;6.72;4.45;;;18.80;99.90;;;;;;5025263;28;20208;-72
2023/09/06 04:43:42;;;;;;;8.68;4.65;;;18.90;99.90;;;;;;5041106;28;20770;-73
2023/09/06 04:46:08;;;;;;;7.22;4.78;;;19.00;99.90;;;;;;5033744;28;20183;-71
2023/09/06 04:48:33;;;;;;;10.63;4.60;;;18.90;99.90;;;;;;5051218;28;20176;-72
2023/09/06 04:50:59;;;;;;;7.53;4.30;;;19.00;99.90;;;;;;5035456;28;20222;-73
2023/09/06 04:53:25;;;;;;;5.35;4.43;;;19.90;99.90;;;;;;5049495;28;20208;-72
2023/09/06 04:55:52;;;;;;;4.45;3.80;;;20.30;99.90;;;;;;5048561;28;20219;-74
2023/09/06 04:58:19;;;;;;;6.22;3.78;;;20.30;99.90;;;;;;5049111;28;20208;-73
2023/09/06 05:00:47;;;;;;;6.95;4.57;;;20.30;99.90;;;;;;5047700;28;20187;-73
2023/09/06 05:03:17;;;;;;;5.05;3.65;;;20.20;99.90;;;;;;5046184;28;20208;-73
2023/09/06 05:05:45;;;;;;;5.10;4.30;;;20.60;99.90;;;;;;5029197;28;20792;-73
2023/09/06 05:08:11;;;;;;;6.30;4.10;;;20.80;99.90;;;;;;5045612;28;20291;-73
2023/09/06 05:10:37;;;;;;;5.35;4.35;;;20.80;99.90;;;;;;5047777;28;20294;-73
2023/09/06 05:13:07;;;;;;;8.75;4.60;;;20.50;99.90;;;;;;5036791;28;20657;-72
2023/09/06 05:15:36;;;;;;;6.38;4.55;;;20.10;99.90;;;;;;5048311;28;20164;-72
2023/09/06 05:18:03;;;;;;;6.20;4.07;;;20.30;99.90;;;;;;5022795;28;20238;-72
2023/09/06 05:20:33;;;;;;;5.50;4.63;;;20.50;99.90;;;;;;5041418;28;20261;-73
2023/09/06 05:23:02;;;;;;;6.45;4.53;;;20.60;99.90;;;;;;5036456;28;20207;-73
2023/09/06 05:25:28;;;;;;;5.97;4.18;;;21.50;99.90;;;;;;5049825;28;20199;-75
2023/09/06 05:27:57;;;;;;;6.03;5.00;;;23.00;99.90;;;;;;5051968;28;20191;-73
2023/09/06 05:30:24;;;;;;;5.25;3.72;;;24.70;99.90;;;;;;5050609;28;20211;-73
2023/09/06 05:32:50;;;;;;;5.18;4.28;;;25.90;99.90;;;;;;5051189;28;20696;-74
2023/09/06 05:35:15;;;;;;;7.07;4.18;;;26.20;99.90;;;;;;5047862;28;20211;-74
2023/09/06 05:37:41;;;;;;;7.93;4.03;;;27.10;99.90;;;;;;5050098;28;20253;-75
2023/09/06 05:40:08;;;;;;;5.35;4.28;;;27.30;99.90;;;;;;5038650;28;20253;-74
2023/09/06 05:42:34;;;;;;;4.43;3.72;;;28.00;99.90;;;;;;5046424;28;20199;-74
2023/09/06 05:45:00;;;;;;;6.13;3.90;;;29.40;99.90;;;;;;5046167;28;20196;-74
2023/09/06 05:47:25;;;;;;;5.80;4.72;;;30.20;99.90;;;;;;5046653;28;20260;-74
2023/09/06 05:49:55;;;;;;;6.32;4.15;;;31.10;99.90;;;;;;5050479;28;20218;-74
2023/09/06 05:52:24;;;;;;;5.43;4.13;;;30.90;99.90;;;;;;5049899;28;20231;-74
2023/09/06 05:54:50;;;;;;;8.10;4.40;;;31.50;99.90;;;;;;5025065;28;20237;-75
2023/09/06 05:57:16;;;;;;;7.57;4.20;;;31.00;99.90;;;;;;5024713;28;20204;-74
2023/09/06 05:59:41;;;;;;;6.70;4.15;;;30.80;99.90;;;;;;5038245;28;20218;-74
2023/09/06 06:02:08;;;;;;;5.50;4.95;;;31.20;99.90;;;;;;5049490;28;20215;-73
2023/09/06 06:04:34;;;;;;;16.70;4.80;;;30.60;99.90;;;;;;5042862;28;20284;-74
2023/09/06 06:07:00;;;;;;;5.43;4.07;;;32.00;99.90;;;;;;5042887;28;20199;-74
2023/09/06 06:09:25;;;;;;;4.85;3.85;;;31.10;99.90;;;;;;5046112;28;20200;-74
2023/09/06 06:11:54;;;;;;;5.57;4.35;;;31.50;99.90;;;;;;5047367;28;20616;-74
2023/09/06 06:14:20;;;;;;;9.10;4.22;;;30.40;99.90;;;;;;5043688;28;20215;-72
2023/09/06 06:16:46;;;;;;;4.95;3.92;;;30.80;99.90;;;;;;5037640;28;20608;-74
2023/09/06 06:19:12;;;;;;;9.40;4.30;;;31.90;99.90;;;;;;5032906;28;20226;-74
2023/09/06 06:21:39;;;;;;;7.18;4.28;;;33.10;99.90;;;;;;5038620;28;20245;-74
2023/09/06 06:24:08;;;;;;;7.15;4.57;;;33.70;99.90;;;;;;5044711;28;20222;-70
2023/09/06 06:26:34;;;;;;;7.35;4.10;;;33.90;98.80;;;;;;5050558;28;20215;-75
2023/09/06 06:29:00;;;;;;;5.82;4.65;;;34.00;97.50;;;;;;5053285;28;20306;-74
2023/09/06 06:31:25;;;;;;;7.55;5.85;;;33.90;96.40;;;;;;5052433;28;20641;-72
2023/09/06 06:33:53;;;;;;;8.50;4.63;;;32.70;96.90;;;;;;5051513;28;20203;-73
2023/09/06 06:36:19;;;;;;;14.52;5.07;;;31.70;97.20;;;;;;5048834;28;20272;-73
2023/09/06 06:38:46;;;;;;;8.35;4.90;;;31.70;97.50;;;;;;5035641;28;20207;-73
2023/09/06 06:41:22;;;;;;;5.45;4.53;;;31.90;97.10;;;;;;5040334;28;20211;-70
2023/09/06 06:43:47;;;;;;;7.15;5.15;;;32.10;96.90;;;;;;5042944;28;20219;-72
2023/09/06 06:46:30;;;;;;;6.30;5.00;;;33.10;96.20;;;;;;5025861;28;20257;-71
2023/09/06 06:48:56;;;;;;;11.05;4.78;;;34.40;94.50;;;;;;5033971;28;20630;-72
2023/09/06 06:51:25;;;;;;;5.50;4.53;;;34.20;93.30;;;;;;5039493;28;20235;-73
2023/09/06 06:53:51;;;;;;;5.65;5.03;;;35.10;92.60;;;;;;5034587;28;20242;-73
2023/09/06 06:56:21;;;;;;;5.72;4.78;;;34.10;92.00;;;;;;5039703;28;20254;-73
2023/09/06 06:58:48;;;;;;;5.95;4.90;;;34.70;92.00;;;;;;5034120;28;20199;-71
2023/09/06 07:01:14;;;;;;;9.93;5.75;;;34.30;91.60;;;;;;5039276;28;20275;-70
2023/09/06 07:03:40;;;;;;;5.00;4.60;;;34.00;90.50;;;;;;5042094;28;20202;-72
2023/09/06 07:06:07;;;;;;;6.80;4.60;;;33.60;90.90;;;;;;5021680;28;20204;-72
2023/09/06 07:08:33;;;;;;;6.30;5.03;;;33.50;91.70;;;;;;5020408;28;20342;-73
2023/09/06 07:10:59;;;;;;;5.95;5.03;;;34.30;90.60;;;;;;5036563;28;20624;-73
2023/09/06 07:13:25;;;;;;;7.43;4.63;;;33.90;90.90;;;;;;5039809;28;20207;-72
2023/09/06 07:15:51;;;;;;;6.38;4.90;;;34.00;91.40;;;;;;5043901;28;20175;-73
2023/09/06 07:18:17;;;;;;;8.60;5.13;;;36.10;90.00;;;;;;5043862;28;20200;-72
2023/09/06 07:20:43;;;;;;;7.57;5.55;;;36.00;88.00;;;;;;5037545;28;20225;-72
2023/09/06 07:23:08;;;;;;;9.23;5.13;;;35.50;85.90;;;;;;5047810;28;20649;-72
2023/09/06 07:25:34;;;;;;;5.50;4.45;;;35.30;88.10;;;;;;5043379;28;20212;-73
2023/09/06 07:28:00;;;;;;;5.78;4.90;;;35.00;89.40;;;;;;5037683;28;20176;-73
2023/09/06 07:30:26;;;;;;;5.68;5.07;;;35.30;87.50;;;;;;5033789;28;20689;-73
2023/09/06 07:32:51;;;;;;;5.00;4.45;;;35.70;86.50;;;;;;5032106;28;20274;-74
2023/09/06 07:35:18;;;;;;;6.35;4.82;;;35.20;86.30;;;;;;5035749;28;20207;-72
2023/09/06 07:37:44;;;;;;;7.38;5.10;;;35.60;86.90;;;;;;5031567;28;20253;-73
2023/09/06 07:40:10;;;;;;;9.10;4.95;;;36.70;84.80;;;;;;5039381;28;20224;-72
2023/09/06 07:42:39;;;;;;;7.03;4.80;;;37.30;82.30;;;;;;5037371;28;20279;-73
2023/09/06 07:45:08;;;;;;;6.78;4.95;;;37.50;81.20;;;;;;5034145;28;20704;-72
2023/09/06 07:47:34;;;;;;;6.80;5.65;;;37.00;81.50;;;;;;5029462;28;20203;-72
2023/09/06 07:50:00;;;;;;;5.85;4.50;;;37.20;80.90;;;;;;5033285;28;20248;-75
2023/09/06 07:52:26;;;;;;;7.40;4.45;;;36.60;79.40;;;;;;5035346;28;20199;-74
2023/09/06 07:54:51;;;;;;;7.45;5.32;;;35.20;81.40;;;;;;5033996;28;20263;-74
2023/09/06 07:57:17;;;;;;;7.30;5.20;;;34.20;85.00;;;;;;5031376;28;20295;-74
2023/09/06 07:59:43;;;;;;;6.72;5.05;;;33.60;87.30;;;;;;5038894;28;20282;-74
2023/09/06 08:02:08;;;;;;;5.68;4.80;;;33.00;87.40;;;;;;5032755;28;20706;-74
2023/09/06 08:04:35;;;;;;;5.47;4.85;;;32.90;88.10;;;;;;5035291;28;20218;-74
2023/09/06 08:07:01;;;;;;;5.53;4.70;;;33.40;88.40;;;;;;5036019;28;20203;-74
2023/09/06 08:09:26;;;;;;;6.70;5.43;;;33.70;87.00;;;;;;5037570;28;20192;-77
2023/09/06 08:11:52;;;;;;;6.18;3.97;;;33.00;86.80;;;;;;5042929;28;20209;-75
2023/09/06 08:14:18;;;;;;;7.82;4.43;;;32.90;87.40;;;;;;5040381;28;20258;-72
2023/09/06 08:16:43;;;;;;;7.00;4.10;;;32.90;89.40;;;;;;5040012;28;20697;-75
2023/09/06 08:19:09;;;;;;;6.57;4.28;;;33.00;89.10;;;;;;5019007;28;20188;-78
2023/09/06 08:21:35;;;;;;;12.55;4.57;;;33.20;87.90;;;;;;5039659;28;20221;-74
2023/09/06 08:24:04;;;;;;;5.78;4.40;;;33.40;88.70;;;;;;5035962;28;20234;-74
2023/09/06 08:26:29;;;;;;;6.03;4.25;;;34.00;87.60;;;;;;5035983;28;20935;-73
2023/09/06 08:28:56;;;;;;;5.22;4.03;;;33.70;87.10;;;;;;5038325;28;20306;-72
2023/09/06 08:31:21;;;;;;;5.82;4.07;;;34.00;88.00;;;;;;5036529;28;20754;-72
2023/09/06 08:33:47;;;;;;;5.80;4.05;;;34.90;87.00;;;;;;5041325;28;20695;-74
2023/09/06 08:36:13;;;;;;;7.05;4.30;;;34.80;85.50;;;;;;5035641;28;20218;-73
2023/09/06 08:38:42;;;;;;;6.75;4.45;;;35.10;84.50;;;;;;5038184;28;20203;-73
2023/09/06 08:41:08;;;;;;;6.28;4.32;;;34.70;83.90;;;;;;5038089;28;20652;-73
2023/09/06 08:43:36;;;;;;;6.60;4.65;;;34.80;83.40;;;;;;5040571;28;20278;-73
2023/09/06 08:46:09;;;;;;;6.65;4.40;;;33.10;85.00;;;;;;5044104;28;20180;-73
2023/09/06 08:48:37;;;;;;;6.45;4.10;;;32.50;87.60;;;;;;5042667;28;20223;-72
2023/09/06 08:51:04;;;;;;;7.43;4.72;;;32.60;87.20;;;;;;5037292;28;20231;-72
2023/09/06 08:53:34;;;;;;;7.00;4.25;;;33.20;87.40;;;;;;5039172;28;20227;-72
2023/09/06 08:56:00;;;;;;;6.93;4.03;;;34.10;86.50;;;;;;5038152;28;20204;-75
2023/09/06 08:58:27;;;;;;;5.63;4.15;;;33.70;84.30;;;;;;5038956;28;20211;-71
2023/09/06 09:00:53;;;;;;;6.32;3.97;;;33.60;84.80;;;;;;5040581;28;20206;-74
2023/09/06 09:03:20;;;;;;;5.97;3.95;;;33.00;87.00;;;;;;5036904;28;20260;-75
2023/09/06 09:05:45;;;;;;;5.25;3.78;;;32.60;87.20;;;;;;5040922;28;20721;-73
2023/09/06 09:08:11;;;;;;;10.70;4.43;;;31.80;88.60;;;;;;5021673;28;20251;-73
2023/09/06 09:10:37;;;;;;;10.85;5.03;;;31.90;89.20;;;;;;5038137;28;20208;-73
2023/09/06 09:13:02;;;;;;;8.38;4.80;;;32.20;89.90;;;;;;5041713;28;20203;-73
2023/09/06 09:15:34;;;;;;;9.05;3.85;;;31.60;89.10;;;;;;5044420;28;20175;-73
2023/09/06 09:18:12;;;;;;;6.97;4.22;;;31.40;90.70;;;;;;5037817;28;20681;-74
2023/09/06 09:20:40;;;;;;;6.30;4.35;;;31.20;90.70;;;;;;5026193;28;20212;-73
2023/09/06 09:23:16;;;;;;;5.53;4.40;;;30.40;91.40;;;;;;5041728;28;20585;-73
2023/09/06 09:25:49;;;;;;;5.15;4.32;;;30.20;91.90;;;;;;5043061;28;21176;-74
2023/09/06 09:28:16;;;;;;;5.28;4.18;;;29.80;92.30;;;;;;5038747;28;20212;-74
2023/09/06 09:30:41;;;;;;;7.90;4.60;;;29.70;92.70;;;;;;5040864;28;20212;-74
2023/09/06 09:33:07;;;;;;;5.82;3.72;;;30.30;91.80;;;;;;5040704;28;20294;-75
2023/09/06 09:35:34;;;;;;;4.85;3.90;;;30.90;91.40;;;;;;5039682;28;20212;-74
2023/09/06 09:38:01;;;;;;;4.60;3.45;;;30.70;91.60;;;;;;5042032;28;20742;-75
2023/09/06 09:40:32;;;;;;;7.40;3.63;;;30.10;90.70;;;;;;5042909;28;20219;-74
2023/09/06 09:43:00;;;;;;;5.82;3.92;;;29.80;91.70;;;;;;5022308;28;20199;-73
2023/09/06 09:45:30;;;;;;;5.30;3.78;;;30.00;92.00;;;;;;5041282;28;20172;-75
2023/09/06 09:47:57;;;;;;;6.20;3.50;;;29.90;91.20;;;;;;5043965;28;20206;-76
2023/09/06 09:50:26;;;;;;;5.93;3.63;;;29.70;91.70;;;;;;5043727;28;20212;-73
2023/09/06 09:52:52;;;;;;;4.50;3.47;;;29.80;91.80;;;;;;5033223;28;20239;-73
2023/09/06 09:55:22;;;;;;;4.47;3.35;;;30.10;91.60;;;;;;5045719;28;20274;-73
2023/09/06 09:57:48;;;;;;;4.32;3.50;;;30.20;91.70;;;;;;5044892;28;20513;-74
2023/09/06 10:00:15;;;;;;;6.40;4.07;;;29.50;91.50;;;;;;5042805;28;20211;-74
2023/09/06 10:02:42;;;;;;;8.23;4.18;;;29.70;92.40;;;;;;5027990;28;21281;-74
2023/09/06 10:05:12;;;;;;;4.82;4.13;;;29.60;91.90;;;;;;5044949;28;20207;-75
2023/09/06 10:07:41;;;;;;;9.25;4.15;;;29.60;92.60;;;;;;5041172;28;20204;-74
2023/09/06 10:10:11;;;;;;;5.82;4.18;;;29.40;92.40;;;;;;5040127;28;20191;-74
2023/09/06 10:12:45;;;;;;;3.83;3.40;;;29.30;92.50;;;;;;5042194;28;20192;-74
2023/09/06 10:15:13;;;;;;;14.40;4.25;;;29.60;92.70;;;;;;5037594;28;20570;-74
2023/09/06 10:17:40;;;;;;;8.45;3.70;;;29.40;92.50;;;;;;5040771;28;20303;-74
2023/09/06 10:20:14;;;;;;;5.97;4.10;;;29.40;93.20;;;;;;5044292;28;20382;-73
2023/09/06 10:22:46;;;;;;;5.95;4.30;;;29.20;92.90;;;;;;5032067;28;20224;-74
2023/09/06 10:25:14;;;;;;;7.05;5.47;;;29.40;93.10;;;;;;5042243;28;20183;-73
2023/09/06 10:27:48;;;;;;;7.43;4.35;;;29.50;92.50;;;;;;5032584;28;20184;-73
2023/09/06 10:30:17;;;;;;;6.25;3.97;;;29.50;92.50;;;;;;5047307;28;20608;-74
2023/09/06 10:32:44;;;;;;;5.75;3.95;;;29.60;92.50;;;;;;5041677;28;20212;-73
2023/09/06 10:35:30;;;;;;;6.32;5.07;;;29.70;91.90;;;;;;5040721;28;20311;-73
2023/09/06 10:38:14;;;;;;;4.40;4.00;;;29.70;92.00;;;;;;5049677;28;20211;-76
2023/09/06 10:40:49;;;;;;;4.20;2.90;;;29.70;91.10;;;;;;5042593;28;20212;-73
2023/09/06 10:43:19;;;;;;;5.28;3.58;;;29.70;91.70;;;;;;5021706;28;20223;-72
2023/09/06 10:45:55;;;;;;;6.07;3.65;;;29.60;91.70;;;;;;5044031;28;20553;-75
2023/09/06 10:48:21;;;;;;;7.55;3.92;;;29.80;92.10;;;;;;5040516;28;20211;-76
2023/09/06 10:51:09;;;;;;;5.55;4.13;;;29.60;92.00;;;;;;5045920;28;20264;-75
2023/09/06 10:53:36;;;;;;;5.90;4.32;;;29.40;92.80;;;;;;5030790;28;20207;-77
2023/09/06 10:56:03;;;;;;;5.65;3.55;;;29.20;93.10;;;;;;5043229;28;20786;-77
2023/09/06 10:58:32;;;;;;;6.22;3.80;;;29.40;92.90;;;;;;5048167;28;20294;-76
2023/09/06 11:01:17;;;;;;;6.28;3.50;;;29.90;92.90;;;;;;5048021;28;20217;-76
2023/09/06 11:03:50;;;;;;;5.80;3.80;;;29.70;91.80;;;;;;5031961;28;20618;-75
2023/09/06 11:06:16;;;;;;;6.75;3.60;;;29.70;92.00;;;;;;5044993;28;20220;-78
2023/09/06 11:08:42;;;;;;;4.45;3.55;;;29.80;91.80;;;;;;5044211;28;20239;-78
2023/09/06 11:11:09;;;;;;;6.00;3.78;;;30.00;91.80;;;;;;5044304;28;20689;-75
2023/09/06 11:13:37;;;;;;;3.83;3.15;;;29.60;90.90;;;;;;5047240;28;20250;-76
2023/09/06 11:16:04;;;;;;;7.00;3.92;;;29.60;90.60;;;;;;5030798;28;20182;-77
2023/09/06 11:18:32;;;;;;;5.05;3.17;;;29.90;91.40;;;;;;5025310;28;20180;-79
2023/09/06 11:20:59;;;;;;;4.57;3.72;;;29.70;91.30;;;;;;5048636;28;20208;-75
2023/09/06 11:23:26;;;;;;;3.75;3.15;;;29.50;91.40;;;;;;5027605;28;20724;-76
2023/09/06 11:25:58;;;;;;;5.45;3.67;;;29.70;91.50;;;;;;5042269;28;20219;-76
2023/09/06 11:28:24;;;;;;;4.43;3.03;;;29.30;90.80;;;;;;5046173;28;20223;-79
2023/09/06 11:30:50;;;;;;;5.50;3.47;;;29.50;90.40;;;;;;5042765;28;20196;-76
2023/09/06 11:33:17;;;;;;;4.28;3.28;;;29.50;90.80;;;;;;5045063;28;20232;-77
2023/09/06 11:35:56;;;;;;;5.40;3.78;;;29.90;91.20;;;;;;5030205;28;20207;-76
2023/09/06 11:38:28;;;;;;;5.32;3.78;;;29.70;90.70;;;;;;5031386;28;20215;-77
2023/09/06 11:40:56;;;;;;;5.70;3.47;;;29.80;90.50;;;;;;5029942;28;20294;-76
2023/09/06 11:43:26;;;;;;;4.45;3.20;;;29.40;88.50;;;;;;5040916;28;20220;-77
2023/09/06 11:45:56;;;;;;;5.45;3.25;;;29.10;90.40;;;;;;5034954;28;20187;-76
2023/09/06 11:48:29;;;;;;;6.80;3.40;;;28.90;91.10;;;;;;5041796;28;20212;-77
2023/09/06 11:51:05;;;;;;;5.43;2.63;;;29.10;90.50;;;;;;5043954;28;20835;-76
2023/09/06 11:53:32;;;;;;;5.93;3.33;;;29.20;90.50;;;;;;5041480;28;20223;-76
2023/09/06 11:55:59;;;;;;;3.10;2.35;;;29.40;90.50;;;;;;5027437;28;20208;-77
2023/09/06 11:58:27;;;;;;;3.80;3.20;;;29.60;89.20;;;;;;5048108;28;20205;-77
2023/09/06 12:00:55;;;;;;;5.35;3.45;;;29.60;89.70;;;;;;5043026;28;20659;-77
2023/09/06 12:03:29;;;;;;;3.67;3.03;;;28.90;90.70;;;;;;5026315;28;20228;-78
2023/09/06 12:05:56;;;;;;;3.17;2.55;;;29.20;90.30;;;;;;5044586;28;20657;-77
2023/09/06 12:08:23;;;;;;;4.95;2.50;;;29.30;85.80;;;;;;5049026;28;20274;-77
2023/09/06 12:10:54;;;;;;;4.07;2.72;;;29.60;84.80;;;;;;5044935;28;20216;-77
2023/09/06 12:13:27;;;;;;;4.60;2.90;;;29.80;85.60;;;;;;5037383;28;20204;-77
2023/09/06 12:15:55;;;;;;;3.63;2.65;;;29.60;87.40;;;;;;5047436;28;20168;-77
2023/09/06 12:18:23;;;;;;;7.00;3.25;;;29.60;88.40;;;;;;5048611;28;20200;-77
2023/09/06 12:20:49;;;;;;;3.83;2.65;;;29.70;89.90;;;;;;5047614;28;20273;-77
2023/09/06 12:23:14;;;;;;;3.85;3.38;;;29.40;90.20;;;;;;5036110;28;20223;-78
2023/09/06 12:25:40;;;;;;;4.00;3.17;;;29.40;89.00;;;;;;5043113;28;20211;-77
2023/09/06 12:28:05;;;;;;;4.63;2.95;;;29.50;89.60;;;;;;5026867;28;20168;-77
2023/09/06 12:30:31;;;;;;;4.85;3.00;;;29.60;90.10;;;;;;5028438;28;20203;-77
2023/09/06 12:32:57;;;;;;;3.58;3.28;;;29.20;90.80;;;;;;5042807;28;20284;-77
2023/09/06 12:35:22;;;;;;;7.07;2.78;;;29.30;91.20;;;;;;5042377;28;20308;-77
2023/09/06 12:37:48;;;;;;;2.88;2.50;;;29.40;91.50;;;;;;5028901;28;20619;-76
2023/09/06 12:40:13;;;;;;;6.13;3.83;;;29.20;91.20;;;;;;5047507;28;20585;-77
2023/09/06 12:42:44;;;;;;;4.22;2.75;;;29.10;90.70;;;;;;5031049;28;20199;-78
2023/09/06 12:45:31;;;;;;;4.75;3.08;;;29.20;90.90;;;;;;5036161;28;20200;-77
2023/09/06 12:47:58;;;;;;;4.28;3.05;;;29.20;91.00;;;;;;5029627;28;20612;-77
2023/09/06 12:50:25;;;;;;;3.42;3.00;;;28.70;91.70;;;;;;5046501;28;20222;-77